Shedd, Oregon
Current Conditions -  °F | °C
As of 8:15 PM on Wednesday 22 Oct 2014 (Local Time) from KCVO Reporting Station
Overcast Overcast  
Wind Chill: 57°   Ceiling: 2900
Heat Index: 57°   Visibility: 10mi
Dew Point: 54°   Wind: 5mph
Humidity: 88%   Direction: 140°SE
Pressure: 29.77"   Gusts: NA
Location:  44.46°N, 123.11°W
Report Text: KCVO 230315Z AUTO 14004KT 10SM BKN029 BKN040 OVC060 14/12 A2977 RMK AO1
Loading
Personal Weather Stations






























Interactive Weather Map
Tropical Storm Tracking
New forecast layout! Learn more

10-Day Weather Forecast

Advertisements
Track Severe Weather on mobile